createdAt,value
2023-04-06T00:01:03.912Z,99362.44
2023-04-06T00:03:30.937Z,99358.91
2023-04-06T00:05:57.808Z,99362.72
2023-04-06T00:08:25.013Z,99362.25
2023-04-06T00:10:51.809Z,99350.72
2023-04-06T00:13:18.540Z,99357.50
2023-04-06T00:15:45.488Z,99355.28
2023-04-06T00:18:12.539Z,99355.41
2023-04-06T00:20:39.489Z,99352.06
2023-04-06T00:23:06.667Z,99354.09
2023-04-06T00:25:33.440Z,99352.81
2023-04-06T00:28:00.597Z,99349.63
2023-04-06T00:30:27.291Z,99351.28
2023-04-06T00:32:54.097Z,99343.38
2023-04-06T00:35:21.184Z,99344.44
2023-04-06T00:37:49.276Z,99351.56
2023-04-06T00:40:16.724Z,99348.50
2023-04-06T00:42:43.518Z,99343.81
2023-04-06T00:45:11.101Z,99342.75
2023-04-06T00:47:38.136Z,99343.75
2023-04-06T00:50:05.794Z,99338.59
2023-04-06T00:52:32.578Z,99345.31
2023-04-06T00:54:59.324Z,99337.06
2023-04-06T00:57:26.065Z,99342.38
2023-04-06T00:59:54.117Z,99339.94
2023-04-06T01:02:21.071Z,99334.41
2023-04-06T01:04:47.827Z,99340.84
2023-04-06T01:07:14.544Z,99340.56
2023-04-06T01:09:43.220Z,99332.88
2023-04-06T01:12:10.264Z,99321.88
2023-04-06T01:14:37.009Z,99321.16
2023-04-06T01:17:03.910Z,99324.91
2023-04-06T01:19:30.645Z,99317.94
2023-04-06T01:21:57.504Z,99318.03
2023-04-06T01:24:24.378Z,99314.88
2023-04-06T01:26:51.083Z,99317.00
2023-04-06T01:29:17.855Z,99321.03
2023-04-06T01:31:44.592Z,99307.66
2023-04-06T01:34:11.534Z,99317.75
2023-04-06T01:36:38.277Z,99312.53
2023-04-06T01:39:05.082Z,99311.13
2023-04-06T01:41:32.185Z,99309.03
2023-04-06T01:43:59.076Z,99304.03
2023-04-06T01:46:25.921Z,99306.03
2023-04-06T01:48:53.514Z,99306.50
2023-04-06T01:51:20.911Z,99298.56
2023-04-06T01:53:47.814Z,99300.38
2023-04-06T01:56:14.635Z,99300.81
2023-04-06T01:58:41.419Z,99294.66
2023-04-06T02:01:08.347Z,99288.03
2023-04-06T02:03:35.272Z,99293.53
2023-04-06T02:06:02.010Z,99292.97
2023-04-06T02:08:28.712Z,99292.22
2023-04-06T02:10:55.482Z,99286.72
2023-04-06T02:13:22.286Z,99296.00
2023-04-06T02:15:49.148Z,99291.47
2023-04-06T02:18:16.618Z,99292.84
2023-04-06T02:20:43.589Z,99295.88
2023-04-06T02:23:10.548Z,99294.66
2023-04-06T02:25:37.601Z,99299.66
2023-04-06T02:28:04.754Z,99298.34
2023-04-06T02:30:33.090Z,99297.03
2023-04-06T02:33:01.702Z,99297.66
2023-04-06T02:35:29.738Z,99295.63
2023-04-06T02:37:56.603Z,99294.38
2023-04-06T02:40:23.572Z,99294.22
2023-04-06T02:42:50.302Z,99289.50
2023-04-06T02:45:17.528Z,99288.78
2023-04-06T02:47:44.296Z,99295.88
2023-04-06T02:50:11.407Z,99291.00
2023-04-06T02:52:38.252Z,99294.75
2023-04-06T02:55:05.969Z,99291.16
2023-04-06T02:57:32.789Z,99296.00
2023-04-06T02:59:59.600Z,99295.31
2023-04-06T03:02:26.909Z,99294.41
2023-04-06T03:04:53.709Z,99298.53
2023-04-06T03:07:20.574Z,99291.84
2023-04-06T03:09:47.388Z,99294.38
2023-04-06T03:12:14.136Z,99291.28
2023-04-06T03:14:40.882Z,99289.88
2023-04-06T03:17:07.733Z,99287.19
2023-04-06T03:19:34.442Z,99292.34
2023-04-06T03:22:01.902Z,99288.88
2023-04-06T03:24:28.702Z,99291.44
2023-04-06T03:26:56.249Z,99290.97
2023-04-06T03:29:23.208Z,99296.00
2023-04-06T03:31:49.995Z,99292.22
2023-04-06T03:34:17.125Z,99291.88
2023-04-06T03:36:44.222Z,99294.94
2023-04-06T03:39:11.075Z,99293.75
2023-04-06T03:41:37.875Z,99271.03
2023-04-06T03:44:04.871Z,99292.84
2023-04-06T03:46:31.652Z,99303.16
2023-04-06T03:48:58.598Z,99294.94
2023-04-06T03:51:25.361Z,99303.44
2023-04-06T03:53:52.654Z,99310.13
2023-04-06T03:56:19.450Z,99306.59
2023-04-06T03:58:46.761Z,99307.03
2023-04-06T04:01:14.112Z,99300.09
2023-04-06T04:03:41.070Z,99307.03
2023-04-06T04:06:07.939Z,99306.59
2023-04-06T04:08:34.999Z,99310.19
2023-04-06T04:11:01.822Z,99313.88
2023-04-06T04:13:28.889Z,99308.16
2023-04-06T04:15:55.648Z,99308.13
2023-04-06T04:18:22.796Z,99321.34
2023-04-06T04:20:49.561Z,99318.44
2023-04-06T04:23:16.910Z,99317.16
2023-04-06T04:25:44.989Z,99317.84
2023-04-06T04:28:12.308Z,99325.88
2023-04-06T04:30:39.051Z,99326.19
2023-04-06T04:33:06.059Z,99320.75
2023-04-06T04:35:32.784Z,99321.25
2023-04-06T04:37:59.534Z,99323.25
2023-04-06T04:40:26.414Z,99321.34
2023-04-06T04:42:53.146Z,99324.13
2023-04-06T04:45:20.018Z,99331.66
2023-04-06T04:47:46.770Z,99324.22
2023-04-06T04:50:13.498Z,99333.75
2023-04-06T04:52:40.252Z,99337.16
2023-04-06T04:55:07.387Z,99324.72
2023-04-06T04:57:34.198Z,99330.13
2023-04-06T05:00:01.036Z,99326.25
2023-04-06T05:02:27.989Z,99331.84
2023-04-06T05:04:54.879Z,99330.38
2023-04-06T05:07:22.137Z,99333.66
2023-04-06T05:09:49.221Z,99334.06
2023-04-06T05:12:16.460Z,99339.88
2023-04-06T05:14:43.385Z,99332.25
2023-04-06T05:17:10.286Z,99331.81
2023-04-06T05:19:37.102Z,99333.53
2023-04-06T05:22:03.944Z,99336.19
2023-04-06T05:24:30.728Z,99337.56
2023-04-06T05:26:57.498Z,99342.00
2023-04-06T05:29:24.334Z,99335.25
2023-04-06T05:31:52.392Z,99328.94
2023-04-06T05:34:19.194Z,99329.69
2023-04-06T05:36:45.914Z,99334.69
2023-04-06T05:39:13.738Z,99327.41
2023-04-06T05:41:40.672Z,99333.94
2023-04-06T05:44:07.480Z,99328.41
2023-04-06T05:46:34.325Z,99329.00
2023-04-06T05:49:01.608Z,99333.13
2023-04-06T05:51:28.705Z,99338.59
2023-04-06T05:53:55.467Z,99330.50
2023-04-06T05:56:22.294Z,99327.72
2023-04-06T05:58:49.052Z,99331.56
2023-04-06T06:01:16.539Z,99334.56
2023-04-06T06:03:43.460Z,99335.81
2023-04-06T06:06:10.247Z,99333.66
2023-04-06T06:08:37.340Z,99342.53
2023-04-06T06:11:04.602Z,99338.44
2023-04-06T06:13:31.447Z,99336.91
2023-04-06T06:15:58.658Z,99331.28
2023-04-06T06:18:25.785Z,99329.00
2023-04-06T06:20:52.535Z,99338.38
2023-04-06T06:23:19.257Z,99330.09
2023-04-06T06:25:46.426Z,99330.19
2023-04-06T06:28:13.622Z,99326.91
2023-04-06T06:30:40.357Z,99327.91
2023-04-06T06:33:07.248Z,99328.13
2023-04-06T06:35:34.003Z,99328.03
2023-04-06T06:38:01.031Z,99328.75
2023-04-06T06:40:28.693Z,99334.97
2023-04-06T06:42:55.535Z,99331.16
2023-04-06T06:45:22.614Z,99325.97
2023-04-06T06:47:49.573Z,99323.47
2023-04-06T06:50:16.551Z,99327.41
2023-04-06T06:52:44.304Z,99327.16
2023-04-06T06:55:12.145Z,99332.28
2023-04-06T06:57:39.832Z,99327.09
2023-04-06T07:00:09.424Z,99337.19
2023-04-06T07:02:37.526Z,99337.84
2023-04-06T07:05:16.051Z,99337.16
2023-04-06T07:07:51.168Z,99340.34
2023-04-06T07:10:17.906Z,99326.94
2023-04-06T07:12:44.810Z,99326.59
2023-04-06T07:15:12.280Z,99332.00
2023-04-06T07:17:39.060Z,99323.31
2023-04-06T07:20:07.007Z,99323.91
2023-04-06T07:22:33.774Z,99319.56
2023-04-06T07:25:00.551Z,99330.22
2023-04-06T07:27:27.517Z,99330.69
2023-04-06T07:29:54.199Z,99320.59
2023-04-06T07:32:21.069Z,99330.16
2023-04-06T07:34:48.171Z,99326.69
2023-04-06T07:37:14.996Z,99317.56
2023-04-06T07:39:41.976Z,99316.59
2023-04-06T07:42:08.780Z,99323.38
2023-04-06T07:44:35.582Z,99317.63
2023-04-06T07:47:02.366Z,99318.72
2023-04-06T07:49:29.199Z,99315.38
2023-04-06T07:51:56.195Z,99316.94
2023-04-06T07:54:22.910Z,99312.28
2023-04-06T07:56:49.638Z,99315.53
2023-04-06T07:59:16.830Z,99314.47
2023-04-06T08:01:43.650Z,99307.94
2023-04-06T08:04:10.991Z,99303.59
2023-04-06T08:06:38.012Z,99311.22
2023-04-06T08:09:04.781Z,99305.03
2023-04-06T08:11:31.546Z,99308.03
2023-04-06T08:13:58.877Z,99300.94
2023-04-06T08:16:25.969Z,99306.22
2023-04-06T08:18:52.694Z,99310.13
2023-04-06T08:21:19.663Z,99308.38
2023-04-06T08:23:47.379Z,99306.34
2023-04-06T08:26:14.396Z,99298.31
2023-04-06T08:28:41.251Z,99301.38
2023-04-06T08:31:08.286Z,99304.50
2023-04-06T08:33:40.501Z,99308.97
2023-04-06T08:36:15.164Z,99307.09
2023-04-06T08:38:44.072Z,99307.00
2023-04-06T08:41:14.961Z,99302.50
2023-04-06T08:43:49.569Z,99296.47
2023-04-06T08:46:16.752Z,99301.81
2023-04-06T08:48:44.251Z,99300.63
2023-04-06T08:51:14.782Z,99306.56
2023-04-06T08:53:42.135Z,99296.00
2023-04-06T08:56:11.326Z,99295.22
2023-04-06T08:58:40.906Z,99300.41
2023-04-06T09:01:10.204Z,99300.56
2023-04-06T09:03:41.809Z,99294.00
2023-04-06T09:06:09.666Z,99289.38
2023-04-06T09:08:37.532Z,99288.88
2023-04-06T09:11:04.744Z,99292.84
2023-04-06T09:13:32.229Z,99286.56
2023-04-06T09:16:03.540Z,99287.66
2023-04-06T09:18:34.969Z,99282.59
2023-04-06T09:21:06.717Z,99289.75
2023-04-06T09:23:33.674Z,99281.47
2023-04-06T09:26:12.404Z,99279.25
2023-04-06T09:28:43.759Z,99269.50
2023-04-06T09:31:13.445Z,99272.59
2023-04-06T09:33:43.028Z,99271.19
2023-04-06T09:36:12.668Z,99263.41
2023-04-06T09:38:52.094Z,99264.28
2023-04-06T09:41:26.799Z,99262.41
2023-04-06T09:44:02.615Z,99258.88
2023-04-06T09:46:43.009Z,99256.84
2023-04-06T09:49:19.035Z,99262.50
2023-04-06T09:51:55.649Z,99254.22
2023-04-06T09:54:24.521Z,99255.47
2023-04-06T09:57:22.274Z,99255.72
2023-04-06T10:00:05.273Z,99255.31
2023-04-06T10:03:21.766Z,99254.47
2023-04-06T10:05:53.899Z,99246.47
2023-04-06T10:08:26.667Z,99245.91
2023-04-06T10:10:55.030Z,99240.09
2023-04-06T10:13:22.235Z,99240.94
2023-04-06T10:15:49.591Z,99244.91
2023-04-06T10:18:17.243Z,99234.97
2023-04-06T10:20:58.960Z,99237.16
2023-04-06T10:23:32.708Z,99233.69
2023-04-06T10:26:03.898Z,99234.94
2023-04-06T10:28:37.094Z,99237.56
2023-04-06T10:31:06.979Z,99232.94
2023-04-06T10:33:34.880Z,99230.03
2023-04-06T10:36:23.781Z,99233.16
2023-04-06T10:38:56.821Z,99234.47
2023-04-06T10:41:23.957Z,99229.41
2023-04-06T10:43:58.032Z,99223.97
2023-04-06T10:46:29.746Z,99221.19
2023-04-06T10:48:57.529Z,99214.50
2023-04-06T10:51:29.374Z,99219.13
2023-04-06T10:53:57.159Z,99217.81
2023-04-06T10:56:30.472Z,99208.69
2023-04-06T10:59:01.265Z,99200.09
2023-04-06T11:01:29.069Z,99206.16
2023-04-06T11:03:59.399Z,99204.31
2023-04-06T11:06:32.630Z,99204.25
2023-04-06T11:08:59.689Z,99203.19
2023-04-06T11:11:28.174Z,99201.72
2023-04-06T11:13:57.665Z,99190.81
2023-04-06T11:16:25.719Z,99198.41
2023-04-06T11:19:03.234Z,99184.88
2023-04-06T11:21:48.982Z,99187.19
2023-04-06T11:24:23.457Z,99184.41
2023-04-06T11:26:56.284Z,99186.53
2023-04-06T11:29:29.408Z,99186.38
2023-04-06T11:32:04.300Z,99177.88
2023-04-06T11:34:32.283Z,99172.72
2023-04-06T11:37:01.126Z,99180.38
2023-04-06T11:39:29.675Z,99164.38
2023-04-06T11:42:01.721Z,99173.56
2023-04-06T11:44:36.943Z,99173.41
2023-04-06T11:47:04.941Z,99158.19
2023-04-06T11:49:33.134Z,99173.75
2023-04-06T11:52:01.257Z,99157.66
2023-04-06T11:54:42.192Z,99157.88
2023-04-06T11:57:10.004Z,99154.66
2023-04-06T11:59:37.401Z,99155.03
2023-04-06T12:02:05.479Z,99151.13
2023-04-06T12:04:32.682Z,99152.09
2023-04-06T12:06:59.814Z,99146.19
2023-04-06T12:09:26.715Z,99143.09
2023-04-06T12:11:53.434Z,99144.97
2023-04-06T12:14:21.354Z,99148.75
2023-04-06T12:16:48.655Z,99134.50
2023-04-06T12:19:15.787Z,99143.78
2023-04-06T12:21:43.913Z,99133.66
2023-04-06T12:24:10.779Z,99141.34
2023-04-06T12:26:38.650Z,99134.84
2023-04-06T12:29:09.084Z,99133.81
2023-04-06T12:31:37.635Z,99142.25
2023-04-06T12:34:05.104Z,99130.47
2023-04-06T12:36:32.652Z,99130.00
2023-04-06T12:38:59.598Z,99132.50
2023-04-06T12:41:26.934Z,99123.13
2023-04-06T12:43:53.789Z,99129.25
2023-04-06T12:46:23.670Z,99131.06
2023-04-06T12:48:58.932Z,99136.19
2023-04-06T12:51:29.811Z,99134.19
2023-04-06T12:53:57.053Z,99127.44
2023-04-06T12:56:24.146Z,99128.94
2023-04-06T12:58:52.992Z,99120.69
2023-04-06T13:01:20.068Z,99130.28
2023-04-06T13:03:47.101Z,99128.97
2023-04-06T13:06:16.106Z,99126.16
2023-04-06T13:08:44.094Z,99118.72
2023-04-06T13:11:11.255Z,99115.06
2023-04-06T13:13:38.476Z,99114.75
2023-04-06T13:16:08.189Z,99121.22
2023-04-06T13:18:35.976Z,99109.81
2023-04-06T13:21:02.897Z,99111.44
2023-04-06T13:23:29.756Z,99110.16
2023-04-06T13:26:04.446Z,99100.88
2023-04-06T13:28:32.188Z,99107.66
2023-04-06T13:31:01.020Z,99102.84
2023-04-06T13:33:28.072Z,99101.72
2023-04-06T13:35:55.077Z,99093.13
2023-04-06T13:38:22.122Z,99092.94
2023-04-06T13:40:51.048Z,99093.94
2023-04-06T13:43:21.083Z,99088.31
2023-04-06T13:45:52.216Z,99090.63
2023-04-06T13:48:19.825Z,99083.88
2023-04-06T13:50:47.274Z,99086.50
2023-04-06T13:53:17.678Z,99085.84
2023-04-06T13:55:54.271Z,99080.06
2023-04-06T13:58:21.276Z,99078.06
2023-04-06T14:00:48.444Z,99079.06
2023-04-06T14:03:18.885Z,99069.63
2023-04-06T14:05:46.706Z,99077.56
2023-04-06T14:08:13.466Z,99068.78
2023-04-06T14:10:41.697Z,99072.28
2023-04-06T14:13:09.365Z,99070.16
2023-04-06T14:15:36.616Z,99068.97
2023-04-06T14:18:03.716Z,99065.81
2023-04-06T14:20:33.447Z,99072.97
2023-04-06T14:23:04.058Z,99077.41
2023-04-06T14:25:35.975Z,99066.81
2023-04-06T14:28:03.400Z,99070.88
2023-04-06T14:30:31.784Z,99073.19
2023-04-06T14:32:59.484Z,99066.00
2023-04-06T14:35:26.744Z,99061.94
2023-04-06T14:37:54.041Z,99067.06
2023-04-06T14:40:20.746Z,99064.75
2023-04-06T14:42:47.866Z,99058.25
2023-04-06T14:45:15.271Z,99060.78
2023-04-06T14:47:42.046Z,99059.41
2023-04-06T14:50:10.007Z,99058.72
2023-04-06T14:52:37.631Z,99056.94
2023-04-06T14:55:05.615Z,99046.50
2023-04-06T14:57:32.541Z,99050.13
2023-04-06T14:59:59.488Z,99045.19
2023-04-06T15:02:27.051Z,99042.34
2023-04-06T15:04:54.142Z,99046.50
2023-04-06T15:07:21.808Z,99043.25
2023-04-06T15:09:48.519Z,99041.81
2023-04-06T15:12:15.260Z,99033.78
2023-04-06T15:14:41.987Z,99039.59
2023-04-06T15:17:08.701Z,99039.72
2023-04-06T15:19:35.568Z,99044.34
2023-04-06T15:22:02.335Z,99035.78
2023-04-06T15:24:29.042Z,99046.34
2023-04-06T15:26:57.171Z,99050.66
2023-04-06T15:29:26.677Z,99037.78
2023-04-06T15:31:53.482Z,99044.22
2023-04-06T15:34:21.504Z,99042.38
2023-04-06T15:36:48.280Z,99035.28
2023-04-06T15:39:15.113Z,99036.72
2023-04-06T15:41:41.809Z,99037.41
2023-04-06T15:44:08.603Z,99036.09
2023-04-06T15:46:36.336Z,99035.06
2023-04-06T15:49:04.522Z,99037.03
2023-04-06T15:51:32.118Z,99041.31
2023-04-06T15:54:00.679Z,99040.31
2023-04-06T15:56:27.405Z,99032.88
2023-04-06T15:58:54.713Z,99036.78
2023-04-06T16:01:21.685Z,99036.25
2023-04-06T16:03:48.510Z,99039.16
2023-04-06T16:06:16.065Z,99035.59
2023-04-06T16:08:42.968Z,99041.44
2023-04-06T16:11:10.509Z,99034.09
2023-04-06T16:13:37.412Z,99028.53
2023-04-06T16:16:05.841Z,99034.50
2023-04-06T16:18:34.930Z,99034.94
2023-04-06T16:21:03.927Z,99037.38
2023-04-06T16:23:30.868Z,99039.16
2023-04-06T16:26:01.058Z,99041.63
2023-04-06T16:28:27.965Z,99037.63
2023-04-06T16:30:55.348Z,99040.25
2023-04-06T16:33:23.463Z,99038.56
2023-04-06T16:35:50.314Z,99039.44
2023-04-06T16:38:17.128Z,99034.16
2023-04-06T16:40:43.907Z,99043.03
2023-04-06T16:43:10.840Z,99044.66
2023-04-06T16:45:38.775Z,99031.06
2023-04-06T16:48:06.390Z,99041.44
2023-04-06T16:50:33.888Z,99039.94
2023-04-06T16:53:00.743Z,99041.06
2023-04-06T16:55:27.464Z,99035.53
2023-04-06T16:57:57.298Z,99029.25
2023-04-06T17:00:24.246Z,99037.81
2023-04-06T17:02:51.281Z,99037.75
2023-04-06T17:05:24.932Z,99035.16
2023-04-06T17:07:52.956Z,99033.53
2023-04-06T17:10:28.639Z,99029.84
2023-04-06T17:13:00.549Z,99040.97
2023-04-06T17:15:28.647Z,99037.44
2023-04-06T17:17:55.636Z,99038.63
2023-04-06T17:20:22.833Z,99030.66
2023-04-06T17:22:49.841Z,99038.47
2023-04-06T17:25:16.951Z,99035.81
2023-04-06T17:27:44.498Z,99040.28
2023-04-06T17:30:12.503Z,99037.66
2023-04-06T17:32:39.390Z,99037.06
2023-04-06T17:35:06.597Z,99041.66
2023-04-06T17:37:33.726Z,99048.34
2023-04-06T17:40:00.795Z,99045.47
2023-04-06T17:42:27.946Z,99045.22
2023-04-06T17:44:54.632Z,99048.88
2023-04-06T17:47:21.491Z,99053.16
2023-04-06T17:49:49.346Z,99055.81
2023-04-06T17:52:16.284Z,99055.84
2023-04-06T17:54:43.306Z,99058.47
2023-04-06T17:57:10.028Z,99054.88
2023-04-06T17:59:36.787Z,99054.34
2023-04-06T18:02:04.572Z,99060.41
2023-04-06T18:04:31.587Z,99057.25
2023-04-06T18:06:58.590Z,99065.66
2023-04-06T18:11:53.244Z,99072.22
2023-04-06T18:14:20.142Z,99071.47
2023-04-06T18:16:46.845Z,99069.63
2023-04-06T18:19:13.866Z,99070.72
2023-04-06T18:21:40.558Z,99075.28
2023-04-06T18:24:08.048Z,99074.31
2023-04-06T18:26:37.338Z,99069.94
2023-04-06T18:29:07.318Z,99070.84
2023-04-06T18:31:37.484Z,99078.56
2023-04-06T18:34:05.098Z,99075.88
2023-04-06T18:36:32.235Z,99082.31
2023-04-06T18:39:00.265Z,99085.16
2023-04-06T18:41:29.981Z,99085.59
2023-04-06T18:43:56.960Z,99086.56
2023-04-06T18:46:25.214Z,99080.16
2023-04-06T18:48:52.569Z,99080.03
2023-04-06T18:51:19.481Z,99087.66
2023-04-06T18:53:46.351Z,99095.06
2023-04-06T18:56:19.022Z,99094.78
2023-04-06T18:58:46.598Z,99096.38
2023-04-06T19:01:29.412Z,99093.63
2023-04-06T19:03:57.580Z,99092.81
2023-04-06T19:06:27.623Z,99102.09
2023-04-06T19:08:55.314Z,99101.28
2023-04-06T19:11:25.436Z,99102.03
2023-04-06T19:13:54.047Z,99101.09
2023-04-06T19:16:21.030Z,99100.94
2023-04-06T19:18:47.943Z,99109.59
2023-04-06T19:21:19.573Z,99105.34
2023-04-06T19:23:47.096Z,99101.66
2023-04-06T19:26:15.364Z,99099.50
2023-04-06T19:28:43.585Z,99110.06
2023-04-06T19:31:13.998Z,99103.88
2023-04-06T19:33:41.087Z,99101.47
2023-04-06T19:36:08.727Z,99102.50
2023-04-06T19:38:35.827Z,99110.72
2023-04-06T19:41:02.723Z,99107.81
2023-04-06T19:43:29.862Z,99107.84
2023-04-06T19:45:56.914Z,99102.41
2023-04-06T19:48:23.938Z,99107.81
2023-04-06T19:50:53.987Z,99112.09
2023-04-06T19:53:21.935Z,99101.34
2023-04-06T19:55:48.757Z,99111.53
2023-04-06T19:58:15.609Z,99108.00
2023-04-06T20:00:42.427Z,99107.03
2023-04-06T20:03:09.409Z,99115.97
2023-04-06T20:05:36.583Z,99104.72
2023-04-06T20:08:03.358Z,99103.09
2023-04-06T20:10:30.998Z,99110.03
2023-04-06T20:12:58.817Z,99104.94
2023-04-06T20:15:25.752Z,99102.34
2023-04-06T20:17:52.806Z,99107.78
2023-04-06T20:20:19.663Z,99109.75
2023-04-06T20:22:50.243Z,99109.09
2023-04-06T20:25:18.446Z,99112.41
2023-04-06T20:27:45.904Z,99108.75
2023-04-06T20:30:16.332Z,99110.66
2023-04-06T20:32:43.504Z,99105.94
2023-04-06T20:35:10.437Z,99107.44
2023-04-06T20:37:38.095Z,99109.94
2023-04-06T20:40:05.899Z,99103.38
2023-04-06T20:42:32.746Z,99108.50
2023-04-06T20:44:59.770Z,99092.97
2023-04-06T20:47:27.442Z,99101.00
2023-04-06T20:49:54.816Z,99103.47
2023-04-06T20:52:21.582Z,99098.06
2023-04-06T20:54:48.915Z,99094.34
2023-04-06T20:57:15.731Z,99094.16
2023-04-06T20:59:42.714Z,99093.22
2023-04-06T21:02:09.695Z,99090.81
2023-04-06T21:04:37.352Z,99101.22
2023-04-06T21:07:05.958Z,99093.94
2023-04-06T21:09:36.038Z,99092.50
2023-04-06T21:12:03.843Z,99090.16
2023-04-06T21:14:30.846Z,99085.81
2023-04-06T21:16:58.348Z,99085.81
2023-04-06T21:19:28.230Z,99092.06
2023-04-06T21:21:55.431Z,99092.59
2023-04-06T21:24:22.296Z,99089.16
2023-04-06T21:26:49.248Z,99092.28
2023-04-06T21:29:16.202Z,99095.63
2023-04-06T21:31:43.132Z,99098.31
2023-04-06T21:34:13.669Z,99095.28
2023-04-06T21:36:41.731Z,99103.88
2023-04-06T21:39:08.984Z,99088.94
2023-04-06T21:41:36.985Z,99085.91
2023-04-06T21:44:03.974Z,99094.94
2023-04-06T21:46:30.781Z,99100.34
2023-04-06T21:48:57.489Z,99096.66
2023-04-06T21:51:24.783Z,99094.28
2023-04-06T21:53:54.534Z,99096.47
2023-04-06T21:56:22.872Z,99086.72
2023-04-06T21:58:50.465Z,99095.63
2023-04-06T22:01:17.964Z,99094.66
2023-04-06T22:03:45.642Z,99086.56
2023-04-06T22:06:12.773Z,99089.41
2023-04-06T22:08:39.568Z,99089.28
2023-04-06T22:11:08.914Z,99091.59
2023-04-06T22:13:36.467Z,99085.25
2023-04-06T22:16:03.677Z,99090.31
2023-04-06T22:18:31.444Z,99087.91
2023-04-06T22:20:58.379Z,99085.75
2023-04-06T22:23:26.032Z,99079.91
2023-04-06T22:25:53.211Z,99090.31
2023-04-06T22:28:20.027Z,99083.41
2023-04-06T22:30:46.850Z,99091.16
2023-04-06T22:33:13.679Z,99081.88
2023-04-06T22:35:40.728Z,99085.63
2023-04-06T22:38:07.718Z,99096.28
2023-04-06T22:40:34.606Z,99097.94
2023-04-06T22:43:01.928Z,99102.69
2023-04-06T22:45:28.660Z,99091.91
2023-04-06T22:47:55.835Z,99094.09
2023-04-06T22:50:22.916Z,99088.91
2023-04-06T22:52:50.080Z,99086.47
2023-04-06T22:55:17.349Z,99092.13
2023-04-06T22:57:44.172Z,99075.38
2023-04-06T23:00:12.705Z,99083.69
2023-04-06T23:02:39.699Z,99081.81
2023-04-06T23:05:07.274Z,99081.38
2023-04-06T23:07:36.110Z,99075.06
2023-04-06T23:10:03.578Z,99079.41
2023-04-06T23:12:30.706Z,99080.72
2023-04-06T23:14:57.998Z,99086.94
2023-04-06T23:17:25.182Z,99087.00
2023-04-06T23:19:52.521Z,99087.00
2023-04-06T23:22:19.461Z,99074.91
2023-04-06T23:24:46.735Z,99070.19
2023-04-06T23:27:13.543Z,99074.13
2023-04-06T23:29:40.456Z,99073.03
2023-04-06T23:32:11.851Z,99089.91
2023-04-06T23:34:50.951Z,99081.22
2023-04-06T23:37:21.016Z,99080.66
2023-04-06T23:39:48.813Z,99065.50
2023-04-06T23:42:16.014Z,99067.97
2023-04-06T23:44:44.328Z,99073.09
2023-04-06T23:47:12.423Z,99072.47
2023-04-06T23:49:40.589Z,99072.25
2023-04-06T23:52:08.455Z,99073.31
2023-04-06T23:54:35.214Z,99071.06
2023-04-06T23:57:02.354Z,99076.09
2023-04-06T23:59:29.200Z,99073.56
